sensor_id;sensor_type;location;lat;lon;timestamp;temperature;humidity
56322;DHT22;42227;6.376;-10.782;2022-11-15T00:02:31;26.30;99.90
56322;DHT22;42227;6.376;-10.782;2022-11-15T00:05:18;26.50;99.90
56322;DHT22;42227;6.376;-10.782;2022-11-15T00:08:19;26.30;99.90
56322;DHT22;42227;6.376;-10.782;2022-11-15T00:11:05;26.30;99.90
56322;DHT22;42227;6.376;-10.782;2022-11-15T00:13:56;26.20;99.90
56322;DHT22;42227;6.376;-10.782;2022-11-15T00:16:43;26.10;99.90
56322;DHT22;42227;6.376;-10.782;2022-11-15T00:19:29;26.20;99.90
56322;DHT22;42227;6.376;-10.782;2022-11-15T00:22:16;26.20;99.90
56322;DHT22;42227;6.376;-10.782;2022-11-15T00:25:02;26.30;99.90
56322;DHT22;42227;6.376;-10.782;2022-11-15T00:27:49;26.30;99.90
56322;DHT22;42227;6.376;-10.782;2022-11-15T00:30:36;26.20;99.90
56322;DHT22;42227;6.376;-10.782;2022-11-15T00:33:22;26.10;99.90
56322;DHT22;42227;6.376;-10.782;2022-11-15T00:36:10;26.20;99.90
56322;DHT22;42227;6.376;-10.782;2022-11-15T00:38:57;26.20;99.90
56322;DHT22;42227;6.376;-10.782;2022-11-15T00:41:43;26.10;99.90
56322;DHT22;42227;6.376;-10.782;2022-11-15T00:44:30;26.20;99.90
56322;DHT22;42227;6.376;-10.782;2022-11-15T00:47:17;26.10;99.90
56322;DHT22;42227;6.376;-10.782;2022-11-15T00:50:04;26.20;99.90
56322;DHT22;42227;6.376;-10.782;2022-11-15T00:52:51;26.20;99.90
56322;DHT22;42227;6.376;-10.782;2022-11-15T00:55:37;26.10;99.90
56322;DHT22;42227;6.376;-10.782;2022-11-15T00:58:23;26.20;99.90
56322;DHT22;42227;6.376;-10.782;2022-11-15T01:01:12;26.10;99.90
56322;DHT22;42227;6.376;-10.782;2022-11-15T01:03:58;26.10;99.90
56322;DHT22;42227;6.376;-10.782;2022-11-15T01:06:46;26.20;99.90
56322;DHT22;42227;6.376;-10.782;2022-11-15T01:09:33;26.10;99.90
56322;DHT22;42227;6.376;-10.782;2022-11-15T01:12:19;26.10;99.90
56322;DHT22;42227;6.376;-10.782;2022-11-15T01:15:06;26.30;99.90
56322;DHT22;42227;6.376;-10.782;2022-11-15T01:17:52;26.20;99.90
56322;DHT22;42227;6.376;-10.782;2022-11-15T01:20:42;26.10;99.90
56322;DHT22;42227;6.376;-10.782;2022-11-15T01:23:28;26.00;99.90
56322;DHT22;42227;6.376;-10.782;2022-11-15T01:26:16;26.00;99.90
56322;DHT22;42227;6.376;-10.782;2022-11-15T01:29:02;25.90;99.90
56322;DHT22;42227;6.376;-10.782;2022-11-15T01:31:49;25.50;99.90
56322;DHT22;42227;6.376;-10.782;2022-11-15T01:34:35;25.20;99.90
56322;DHT22;42227;6.376;-10.782;2022-11-15T01:37:21;25.30;99.90
56322;DHT22;42227;6.376;-10.782;2022-11-15T01:40:08;25.40;99.90
56322;DHT22;42227;6.376;-10.782;2022-11-15T01:42:55;25.20;99.90
56322;DHT22;42227;6.376;-10.782;2022-11-15T01:45:41;25.10;99.90
56322;DHT22;42227;6.376;-10.782;2022-11-15T01:48:32;25.00;99.90
56322;DHT22;42227;6.376;-10.782;2022-11-15T01:51:21;25.10;99.90
56322;DHT22;42227;6.376;-10.782;2022-11-15T01:54:12;25.20;99.90
56322;DHT22;42227;6.376;-10.782;2022-11-15T01:57:03;25.30;99.90
56322;DHT22;42227;6.376;-10.782;2022-11-15T01:59:51;25.30;99.90
56322;DHT22;42227;6.376;-10.782;2022-11-15T02:02:37;25.40;99.90
56322;DHT22;42227;6.376;-10.782;2022-11-15T02:05:24;25.30;99.90
56322;DHT22;42227;6.376;-10.782;2022-11-15T02:08:10;25.30;99.90
56322;DHT22;42227;6.376;-10.782;2022-11-15T02:10:57;25.20;99.90
56322;DHT22;42227;6.376;-10.782;2022-11-15T02:13:44;25.10;99.90
56322;DHT22;42227;6.376;-10.782;2022-11-15T02:29:31;25.40;99.90
56322;DHT22;42227;6.376;-10.782;2022-11-15T02:35:43;25.30;99.90
56322;DHT22;42227;6.376;-10.782;2022-11-15T02:38:44;25.20;99.90
56322;DHT22;42227;6.376;-10.782;2022-11-15T02:41:49;25.20;99.90
56322;DHT22;42227;6.376;-10.782;2022-11-15T02:44:44;25.20;99.90
56322;DHT22;42227;6.376;-10.782;2022-11-15T02:47:36;25.40;99.90
56322;DHT22;42227;6.376;-10.782;2022-11-15T02:50:27;25.40;99.90
56322;DHT22;42227;6.376;-10.782;2022-11-15T02:53:15;25.40;99.90
56322;DHT22;42227;6.376;-10.782;2022-11-15T02:56:02;25.50;99.90
56322;DHT22;42227;6.376;-10.782;2022-11-15T02:59:01;25.50;99.90
56322;DHT22;42227;6.376;-10.782;2022-11-15T03:05:16;25.30;99.90
56322;DHT22;42227;6.376;-10.782;2022-11-15T03:17:16;25.50;99.90
56322;DHT22;42227;6.376;-10.782;2022-11-15T03:20:05;25.40;99.90
56322;DHT22;42227;6.376;-10.782;2022-11-15T03:22:54;25.40;99.90
56322;DHT22;42227;6.376;-10.782;2022-11-15T03:25:47;25.40;99.90
56322;DHT22;42227;6.376;-10.782;2022-11-15T03:28:50;25.30;99.90
56322;DHT22;42227;6.376;-10.782;2022-11-15T03:31:42;25.30;99.90
56322;DHT22;42227;6.376;-10.782;2022-11-15T03:34:42;25.40;99.90
56322;DHT22;42227;6.376;-10.782;2022-11-15T03:41:05;25.40;99.90
56322;DHT22;42227;6.376;-10.782;2022-11-15T03:44:04;25.40;99.90
56322;DHT22;42227;6.376;-10.782;2022-11-15T03:47:21;25.20;99.90
56322;DHT22;42227;6.376;-10.782;2022-11-15T03:50:16;25.20;99.90
56322;DHT22;42227;6.376;-10.782;2022-11-15T03:53:04;25.10;99.90
56322;DHT22;42227;6.376;-10.782;2022-11-15T03:55:51;25.10;99.90
56322;DHT22;42227;6.376;-10.782;2022-11-15T03:58:39;25.30;99.90
56322;DHT22;42227;6.376;-10.782;2022-11-15T04:01:25;25.50;99.90
56322;DHT22;42227;6.376;-10.782;2022-11-15T04:04:13;25.50;99.90
56322;DHT22;42227;6.376;-10.782;2022-11-15T04:06:59;25.20;99.90
56322;DHT22;42227;6.376;-10.782;2022-11-15T04:09:46;25.20;99.90
56322;DHT22;42227;6.376;-10.782;2022-11-15T04:12:40;25.10;99.90
56322;DHT22;42227;6.376;-10.782;2022-11-15T04:15:26;25.00;99.90
56322;DHT22;42227;6.376;-10.782;2022-11-15T04:18:13;25.00;99.90
56322;DHT22;42227;6.376;-10.782;2022-11-15T04:20:59;25.00;99.90
56322;DHT22;42227;6.376;-10.782;2022-11-15T04:23:46;25.20;99.90
56322;DHT22;42227;6.376;-10.782;2022-11-15T04:26:32;25.20;99.90
56322;DHT22;42227;6.376;-10.782;2022-11-15T04:29:19;25.20;99.90
56322;DHT22;42227;6.376;-10.782;2022-11-15T04:32:06;25.20;99.90
56322;DHT22;42227;6.376;-10.782;2022-11-15T04:34:53;25.10;99.90
56322;DHT22;42227;6.376;-10.782;2022-11-15T04:37:39;25.10;99.90
56322;DHT22;42227;6.376;-10.782;2022-11-15T04:40:34;25.10;99.90
56322;DHT22;42227;6.376;-10.782;2022-11-15T04:43:20;25.10;99.90
56322;DHT22;42227;6.376;-10.782;2022-11-15T04:46:06;25.20;99.90
56322;DHT22;42227;6.376;-10.782;2022-11-15T04:48:54;25.40;99.90
56322;DHT22;42227;6.376;-10.782;2022-11-15T04:51:44;25.40;99.90
56322;DHT22;42227;6.376;-10.782;2022-11-15T04:54:31;25.30;99.90
56322;DHT22;42227;6.376;-10.782;2022-11-15T04:57:17;25.20;99.90
56322;DHT22;42227;6.376;-10.782;2022-11-15T05:00:09;25.10;99.90
56322;DHT22;42227;6.376;-10.782;2022-11-15T05:02:57;25.00;99.90
56322;DHT22;42227;6.376;-10.782;2022-11-15T05:05:43;25.00;99.90
56322;DHT22;42227;6.376;-10.782;2022-11-15T05:08:30;24.90;99.90
56322;DHT22;42227;6.376;-10.782;2022-11-15T05:11:16;24.80;99.90
56322;DHT22;42227;6.376;-10.782;2022-11-15T05:14:03;25.00;99.90
56322;DHT22;42227;6.376;-10.782;2022-11-15T05:16:49;25.30;99.90
56322;DHT22;42227;6.376;-10.782;2022-11-15T05:19:36;25.20;99.90
56322;DHT22;42227;6.376;-10.782;2022-11-15T05:22:22;25.00;99.90
56322;DHT22;42227;6.376;-10.782;2022-11-15T05:25:09;25.10;99.90
56322;DHT22;42227;6.376;-10.782;2022-11-15T05:27:56;25.20;99.90
56322;DHT22;42227;6.376;-10.782;2022-11-15T05:30:42;25.30;99.90
56322;DHT22;42227;6.376;-10.782;2022-11-15T05:33:29;25.10;99.90
56322;DHT22;42227;6.376;-10.782;2022-11-15T05:36:33;25.00;99.90
56322;DHT22;42227;6.376;-10.782;2022-11-15T05:39:20;25.10;99.90
56322;DHT22;42227;6.376;-10.782;2022-11-15T05:42:11;25.10;99.90
56322;DHT22;42227;6.376;-10.782;2022-11-15T05:44:58;25.10;99.90
56322;DHT22;42227;6.376;-10.782;2022-11-15T05:47:47;25.10;99.90
56322;DHT22;42227;6.376;-10.782;2022-11-15T05:50:37;25.10;99.90
56322;DHT22;42227;6.376;-10.782;2022-11-15T05:53:25;25.00;99.90
56322;DHT22;42227;6.376;-10.782;2022-11-15T05:56:12;24.90;99.90
56322;DHT22;42227;6.376;-10.782;2022-11-15T05:59:00;24.90;99.90
56322;DHT22;42227;6.376;-10.782;2022-11-15T06:01:47;25.00;99.90
56322;DHT22;42227;6.376;-10.782;2022-11-15T06:04:33;25.10;99.90
56322;DHT22;42227;6.376;-10.782;2022-11-15T06:07:20;25.30;99.90
56322;DHT22;42227;6.376;-10.782;2022-11-15T06:10:07;25.10;99.90
56322;DHT22;42227;6.376;-10.782;2022-11-15T06:13:01;25.10;99.90
56322;DHT22;42227;6.376;-10.782;2022-11-15T06:15:48;25.00;99.90
56322;DHT22;42227;6.376;-10.782;2022-11-15T06:18:35;25.00;99.90
56322;DHT22;42227;6.376;-10.782;2022-11-15T06:21:22;25.00;99.90
56322;DHT22;42227;6.376;-10.782;2022-11-15T06:24:08;25.00;99.90
56322;DHT22;42227;6.376;-10.782;2022-11-15T06:26:54;25.00;99.90
56322;DHT22;42227;6.376;-10.782;2022-11-15T06:29:41;25.10;99.90
56322;DHT22;42227;6.376;-10.782;2022-11-15T06:32:29;25.20;99.90
56322;DHT22;42227;6.376;-10.782;2022-11-15T06:35:16;25.00;99.90
56322;DHT22;42227;6.376;-10.782;2022-11-15T06:38:04;25.00;99.90
56322;DHT22;42227;6.376;-10.782;2022-11-15T06:40:51;24.90;99.90
56322;DHT22;42227;6.376;-10.782;2022-11-15T06:43:38;24.90;99.90
56322;DHT22;42227;6.376;-10.782;2022-11-15T06:46:25;24.90;99.90
56322;DHT22;42227;6.376;-10.782;2022-11-15T06:49:12;24.90;99.90
56322;DHT22;42227;6.376;-10.782;2022-11-15T06:51:58;24.90;99.90
56322;DHT22;42227;6.376;-10.782;2022-11-15T06:54:45;25.00;99.90
56322;DHT22;42227;6.376;-10.782;2022-11-15T06:57:31;25.20;99.90
56322;DHT22;42227;6.376;-10.782;2022-11-15T07:00:20;25.10;99.90
56322;DHT22;42227;6.376;-10.782;2022-11-15T07:03:07;25.10;99.90
56322;DHT22;42227;6.376;-10.782;2022-11-15T07:05:55;25.10;99.90
56322;DHT22;42227;6.376;-10.782;2022-11-15T07:08:46;25.00;99.90
56322;DHT22;42227;6.376;-10.782;2022-11-15T07:11:33;24.90;99.90
56322;DHT22;42227;6.376;-10.782;2022-11-15T07:14:19;25.00;99.90
56322;DHT22;42227;6.376;-10.782;2022-11-15T07:17:06;24.90;99.90
56322;DHT22;42227;6.376;-10.782;2022-11-15T07:19:52;25.00;99.90
56322;DHT22;42227;6.376;-10.782;2022-11-15T07:22:39;25.00;99.90
56322;DHT22;42227;6.376;-10.782;2022-11-15T07:25:26;24.90;99.90
56322;DHT22;42227;6.376;-10.782;2022-11-15T07:28:12;24.70;99.90
56322;DHT22;42227;6.376;-10.782;2022-11-15T07:31:03;24.70;99.90
56322;DHT22;42227;6.376;-10.782;2022-11-15T07:33:49;24.50;99.90
56322;DHT22;42227;6.376;-10.782;2022-11-15T07:36:35;24.50;99.90
56322;DHT22;42227;6.376;-10.782;2022-11-15T07:39:22;24.50;99.90
56322;DHT22;42227;6.376;-10.782;2022-11-15T07:42:08;24.50;99.90
56322;DHT22;42227;6.376;-10.782;2022-11-15T07:44:54;24.50;99.90
56322;DHT22;42227;6.376;-10.782;2022-11-15T07:47:41;24.80;99.90
56322;DHT22;42227;6.376;-10.782;2022-11-15T07:50:31;24.70;99.90
56322;DHT22;42227;6.376;-10.782;2022-11-15T07:53:17;24.70;99.90
56322;DHT22;42227;6.376;-10.782;2022-11-15T07:56:06;24.60;99.90
56322;DHT22;42227;6.376;-10.782;2022-11-15T07:58:53;24.50;99.90
56322;DHT22;42227;6.376;-10.782;2022-11-15T08:01:42;24.40;99.90
56322;DHT22;42227;6.376;-10.782;2022-11-15T08:04:29;24.40;99.90
56322;DHT22;42227;6.376;-10.782;2022-11-15T08:07:15;24.40;99.90
56322;DHT22;42227;6.376;-10.782;2022-11-15T08:10:03;24.50;99.90
56322;DHT22;42227;6.376;-10.782;2022-11-15T08:13:00;24.40;99.90
56322;DHT22;42227;6.376;-10.782;2022-11-15T08:15:47;24.40;99.90
56322;DHT22;42227;6.376;-10.782;2022-11-15T08:18:41;24.30;99.90
56322;DHT22;42227;6.376;-10.782;2022-11-15T08:21:27;24.20;99.90
56322;DHT22;42227;6.376;-10.782;2022-11-15T08:24:13;24.10;99.90
56322;DHT22;42227;6.376;-10.782;2022-11-15T08:27:00;24.10;99.90
56322;DHT22;42227;6.376;-10.782;2022-11-15T08:29:48;24.10;99.90
56322;DHT22;42227;6.376;-10.782;2022-11-15T08:32:36;24.00;99.90
56322;DHT22;42227;6.376;-10.782;2022-11-15T08:35:22;24.00;99.90
56322;DHT22;42227;6.376;-10.782;2022-11-15T08:38:13;24.10;99.90
56322;DHT22;42227;6.376;-10.782;2022-11-15T08:41:03;24.40;99.90
56322;DHT22;42227;6.376;-10.782;2022-11-15T08:43:50;24.20;99.90
56322;DHT22;42227;6.376;-10.782;2022-11-15T08:46:37;24.20;99.90
56322;DHT22;42227;6.376;-10.782;2022-11-15T08:49:24;24.10;99.90
56322;DHT22;42227;6.376;-10.782;2022-11-15T08:52:10;24.10;99.90
56322;DHT22;42227;6.376;-10.782;2022-11-15T08:54:56;24.00;99.90
56322;DHT22;42227;6.376;-10.782;2022-11-15T08:57:43;24.10;99.90
56322;DHT22;42227;6.376;-10.782;2022-11-15T09:00:29;24.20;99.90
56322;DHT22;42227;6.376;-10.782;2022-11-15T09:03:16;24.20;99.90
56322;DHT22;42227;6.376;-10.782;2022-11-15T09:06:02;24.30;99.90
56322;DHT22;42227;6.376;-10.782;2022-11-15T09:08:49;24.20;99.90
56322;DHT22;42227;6.376;-10.782;2022-11-15T09:11:35;24.20;99.90
56322;DHT22;42227;6.376;-10.782;2022-11-15T09:14:21;24.00;99.90
56322;DHT22;42227;6.376;-10.782;2022-11-15T09:17:09;24.00;99.90
56322;DHT22;42227;6.376;-10.782;2022-11-15T09:19:55;24.10;99.90
56322;DHT22;42227;6.376;-10.782;2022-11-15T09:22:42;24.20;99.90
56322;DHT22;42227;6.376;-10.782;2022-11-15T09:25:29;24.30;99.90
56322;DHT22;42227;6.376;-10.782;2022-11-15T09:28:15;24.40;99.90
56322;DHT22;42227;6.376;-10.782;2022-11-15T09:31:04;24.60;99.90
56322;DHT22;42227;6.376;-10.782;2022-11-15T09:33:51;24.90;99.90
56322;DHT22;42227;6.376;-10.782;2022-11-15T09:36:37;25.00;99.90
56322;DHT22;42227;6.376;-10.782;2022-11-15T09:39:23;25.00;99.90
56322;DHT22;42227;6.376;-10.782;2022-11-15T09:42:27;24.90;99.90
56322;DHT22;42227;6.376;-10.782;2022-11-15T09:45:29;25.00;99.90
56322;DHT22;42227;6.376;-10.782;2022-11-15T09:48:59;25.00;99.90
56322;DHT22;42227;6.376;-10.782;2022-11-15T09:51:52;25.10;99.90
56322;DHT22;42227;6.376;-10.782;2022-11-15T09:57:33;25.10;99.90
56322;DHT22;42227;6.376;-10.782;2022-11-15T10:03:06;25.50;99.90
56322;DHT22;42227;6.376;-10.782;2022-11-15T10:05:40;25.50;99.90
56322;DHT22;42227;6.376;-10.782;2022-11-15T10:08:37;25.40;99.90
56322;DHT22;42227;6.376;-10.782;2022-11-15T10:11:22;25.50;99.90
56322;DHT22;42227;6.376;-10.782;2022-11-15T10:14:17;25.60;99.90
56322;DHT22;42227;6.376;-10.782;2022-11-15T10:19:56;25.60;99.90
56322;DHT22;42227;6.376;-10.782;2022-11-15T10:22:44;25.90;99.90
56322;DHT22;42227;6.376;-10.782;2022-11-15T10:25:17;26.10;99.90
56322;DHT22;42227;6.376;-10.782;2022-11-15T10:28:16;26.10;99.90
56322;DHT22;42227;6.376;-10.782;2022-11-15T10:30:48;26.20;99.90
56322;DHT22;42227;6.376;-10.782;2022-11-15T10:33:33;26.20;99.90
56322;DHT22;42227;6.376;-10.782;2022-11-15T10:39:03;26.40;99.90
56322;DHT22;42227;6.376;-10.782;2022-11-15T10:41:35;26.40;99.90
56322;DHT22;42227;6.376;-10.782;2022-11-15T10:46:40;26.50;99.90
56322;DHT22;42227;6.376;-10.782;2022-11-15T10:49:15;26.70;99.90
56322;DHT22;42227;6.376;-10.782;2022-11-15T10:51:52;26.90;99.90
56322;DHT22;42227;6.376;-10.782;2022-11-15T10:54:39;27.10;99.90
56322;DHT22;42227;6.376;-10.782;2022-11-15T10:57:17;27.20;99.90
56322;DHT22;42227;6.376;-10.782;2022-11-15T10:59:49;27.10;99.90
56322;DHT22;42227;6.376;-10.782;2022-11-15T11:03:27;27.00;99.90
56322;DHT22;42227;6.376;-10.782;2022-11-15T11:06:16;27.20;99.90
56322;DHT22;42227;6.376;-10.782;2022-11-15T11:09:03;27.20;99.90
56322;DHT22;42227;6.376;-10.782;2022-11-15T11:11:46;27.30;99.90
56322;DHT22;42227;6.376;-10.782;2022-11-15T11:14:23;27.00;99.90
56322;DHT22;42227;6.376;-10.782;2022-11-15T11:33:21;28.10;99.90
56322;DHT22;42227;6.376;-10.782;2022-11-15T11:44:33;28.30;99.90
56322;DHT22;42227;6.376;-10.782;2022-11-15T11:47:11;28.50;99.90
56322;DHT22;42227;6.376;-10.782;2022-11-15T11:49:51;28.70;99.90
56322;DHT22;42227;6.376;-10.782;2022-11-15T11:52:25;28.80;99.90
56322;DHT22;42227;6.376;-10.782;2022-11-15T12:00:24;28.70;99.90
56322;DHT22;42227;6.376;-10.782;2022-11-15T12:03:04;28.50;99.90
56322;DHT22;42227;6.376;-10.782;2022-11-15T12:05:49;28.60;99.90
56322;DHT22;42227;6.376;-10.782;2022-11-15T12:10:50;29.40;99.90
56322;DHT22;42227;6.376;-10.782;2022-11-15T12:13:24;29.40;99.90
56322;DHT22;42227;6.376;-10.782;2022-11-15T12:18:37;29.20;99.90
56322;DHT22;42227;6.376;-10.782;2022-11-15T12:22:03;29.30;99.90
56322;DHT22;42227;6.376;-10.782;2022-11-15T12:24:24;29.70;99.90
56322;DHT22;42227;6.376;-10.782;2022-11-15T12:27:05;29.50;99.90
56322;DHT22;42227;6.376;-10.782;2022-11-15T12:30:00;29.40;99.90
56322;DHT22;42227;6.376;-10.782;2022-11-15T12:32:34;29.70;99.90
56322;DHT22;42227;6.376;-10.782;2022-11-15T12:35:05;30.10;99.90
56322;DHT22;42227;6.376;-10.782;2022-11-15T12:43:34;29.90;99.90
56322;DHT22;42227;6.376;-10.782;2022-11-15T12:46:03;30.00;99.90
56322;DHT22;42227;6.376;-10.782;2022-11-15T12:51:03;29.80;99.90
56322;DHT22;42227;6.376;-10.782;2022-11-15T12:53:33;29.70;99.90
56322;DHT22;42227;6.376;-10.782;2022-11-15T12:58:46;29.50;99.90
56322;DHT22;42227;6.376;-10.782;2022-11-15T13:06:58;29.30;99.90
56322;DHT22;42227;6.376;-10.782;2022-11-15T13:12:09;29.30;99.90
56322;DHT22;42227;6.376;-10.782;2022-11-15T13:17:28;29.00;99.90
56322;DHT22;42227;6.376;-10.782;2022-11-15T13:22:45;28.40;99.90
56322;DHT22;42227;6.376;-10.782;2022-11-15T13:30:38;28.70;99.90
56322;DHT22;42227;6.376;-10.782;2022-11-15T13:36:24;28.70;99.90
56322;DHT22;42227;6.376;-10.782;2022-11-15T13:38:57;28.70;99.90
56322;DHT22;42227;6.376;-10.782;2022-11-15T13:41:29;28.80;99.90
56322;DHT22;42227;6.376;-10.782;2022-11-15T13:43:58;28.80;99.90
56322;DHT22;42227;6.376;-10.782;2022-11-15T13:46:29;29.10;99.90
56322;DHT22;42227;6.376;-10.782;2022-11-15T13:49:00;29.60;99.90
56322;DHT22;42227;6.376;-10.782;2022-11-15T13:51:36;29.60;99.90
56322;DHT22;42227;6.376;-10.782;2022-11-15T13:54:22;29.60;99.90
56322;DHT22;42227;6.376;-10.782;2022-11-15T13:57:05;29.70;99.90
56322;DHT22;42227;6.376;-10.782;2022-11-15T13:59:48;29.80;99.90
56322;DHT22;42227;6.376;-10.782;2022-11-15T14:02:26;29.80;99.90
56322;DHT22;42227;6.376;-10.782;2022-11-15T14:05:16;29.70;99.90
56322;DHT22;42227;6.376;-10.782;2022-11-15T14:07:59;29.90;99.90
56322;DHT22;42227;6.376;-10.782;2022-11-15T14:10:36;29.50;99.90
56322;DHT22;42227;6.376;-10.782;2022-11-15T14:13:25;29.90;99.90
56322;DHT22;42227;6.376;-10.782;2022-11-15T14:15:54;29.80;99.90
56322;DHT22;42227;6.376;-10.782;2022-11-15T14:18:48;29.50;99.90
56322;DHT22;42227;6.376;-10.782;2022-11-15T14:21:18;29.30;99.90
56322;DHT22;42227;6.376;-10.782;2022-11-15T14:23:47;28.90;99.90
56322;DHT22;42227;6.376;-10.782;2022-11-15T14:26:32;28.70;99.90
56322;DHT22;42227;6.376;-10.782;2022-11-15T14:29:27;28.80;99.90
56322;DHT22;42227;6.376;-10.782;2022-11-15T14:32:22;28.90;99.90
56322;DHT22;42227;6.376;-10.782;2022-11-15T14:35:01;28.90;99.90
56322;DHT22;42227;6.376;-10.782;2022-11-15T14:37:33;29.20;99.90
56322;DHT22;42227;6.376;-10.782;2022-11-15T14:40:04;29.50;99.90
56322;DHT22;42227;6.376;-10.782;2022-11-15T14:42:33;29.40;99.90
56322;DHT22;42227;6.376;-10.782;2022-11-15T14:45:01;29.20;99.90
56322;DHT22;42227;6.376;-10.782;2022-11-15T14:47:29;29.10;99.90
56322;DHT22;42227;6.376;-10.782;2022-11-15T14:49:57;29.00;99.90
56322;DHT22;42227;6.376;-10.782;2022-11-15T14:52:29;29.00;99.90
56322;DHT22;42227;6.376;-10.782;2022-11-15T14:55:00;29.30;99.90
56322;DHT22;42227;6.376;-10.782;2022-11-15T14:57:29;29.40;99.90
56322;DHT22;42227;6.376;-10.782;2022-11-15T14:59:58;29.50;99.90
56322;DHT22;42227;6.376;-10.782;2022-11-15T15:02:39;29.70;99.90
56322;DHT22;42227;6.376;-10.782;2022-11-15T15:05:21;29.90;99.90
56322;DHT22;42227;6.376;-10.782;2022-11-15T15:07:51;29.60;99.90
56322;DHT22;42227;6.376;-10.782;2022-11-15T15:10:19;29.60;99.90
56322;DHT22;42227;6.376;-10.782;2022-11-15T15:13:22;29.60;99.90
56322;DHT22;42227;6.376;-10.782;2022-11-15T15:15:52;29.50;99.90
56322;DHT22;42227;6.376;-10.782;2022-11-15T15:18:20;29.40;99.90
56322;DHT22;42227;6.376;-10.782;2022-11-15T15:20:55;29.60;99.90
56322;DHT22;42227;6.376;-10.782;2022-11-15T15:23:23;29.70;99.90
56322;DHT22;42227;6.376;-10.782;2022-11-15T15:25:52;29.90;99.90
56322;DHT22;42227;6.376;-10.782;2022-11-15T15:28:20;29.70;99.90
56322;DHT22;42227;6.376;-10.782;2022-11-15T15:30:48;29.50;99.90
56322;DHT22;42227;6.376;-10.782;2022-11-15T15:33:17;29.50;99.90
56322;DHT22;42227;6.376;-10.782;2022-11-15T15:35:45;29.40;99.90
56322;DHT22;42227;6.376;-10.782;2022-11-15T15:38:13;29.30;99.90
56322;DHT22;42227;6.376;-10.782;2022-11-15T15:40:41;29.10;99.90
56322;DHT22;42227;6.376;-10.782;2022-11-15T15:43:10;29.00;99.90
56322;DHT22;42227;6.376;-10.782;2022-11-15T15:45:40;29.10;99.90
56322;DHT22;42227;6.376;-10.782;2022-11-15T15:48:16;29.50;99.90
56322;DHT22;42227;6.376;-10.782;2022-11-15T15:50:45;29.60;99.90
56322;DHT22;42227;6.376;-10.782;2022-11-15T15:53:13;29.40;99.90
56322;DHT22;42227;6.376;-10.782;2022-11-15T15:55:41;29.10;99.90
56322;DHT22;42227;6.376;-10.782;2022-11-15T15:58:10;29.10;99.90
56322;DHT22;42227;6.376;-10.782;2022-11-15T16:00:38;28.80;99.90
56322;DHT22;42227;6.376;-10.782;2022-11-15T16:03:06;28.80;99.90
56322;DHT22;42227;6.376;-10.782;2022-11-15T16:05:34;28.70;99.90
56322;DHT22;42227;6.376;-10.782;2022-11-15T16:08:03;28.80;99.90
56322;DHT22;42227;6.376;-10.782;2022-11-15T16:10:33;29.20;99.90
56322;DHT22;42227;6.376;-10.782;2022-11-15T16:13:02;29.40;99.90
56322;DHT22;42227;6.376;-10.782;2022-11-15T16:15:31;29.00;99.90
56322;DHT22;42227;6.376;-10.782;2022-11-15T16:18:01;28.80;99.90
56322;DHT22;42227;6.376;-10.782;2022-11-15T16:20:47;28.70;99.90
56322;DHT22;42227;6.376;-10.782;2022-11-15T16:23:18;28.30;99.90
56322;DHT22;42227;6.376;-10.782;2022-11-15T16:25:54;28.00;99.90
56322;DHT22;42227;6.376;-10.782;2022-11-15T16:28:27;27.10;99.90
56322;DHT22;42227;6.376;-10.782;2022-11-15T16:31:09;26.30;99.90
56322;DHT22;42227;6.376;-10.782;2022-11-15T16:38:14;25.00;99.90
56322;DHT22;42227;6.376;-10.782;2022-11-15T16:40:42;25.20;99.90
56322;DHT22;42227;6.376;-10.782;2022-11-15T16:43:11;25.30;99.90
56322;DHT22;42227;6.376;-10.782;2022-11-15T16:45:39;25.00;99.90
56322;DHT22;42227;6.376;-10.782;2022-11-15T16:48:24;24.70;99.90
56322;DHT22;42227;6.376;-10.782;2022-11-15T16:50:57;24.60;99.90
56322;DHT22;42227;6.376;-10.782;2022-11-15T16:53:25;24.60;99.90
56322;DHT22;42227;6.376;-10.782;2022-11-15T16:55:54;25.00;99.90
56322;DHT22;42227;6.376;-10.782;2022-11-15T16:58:23;25.40;99.90
56322;DHT22;42227;6.376;-10.782;2022-11-15T17:00:52;25.70;99.90
56322;DHT22;42227;6.376;-10.782;2022-11-15T17:03:22;25.70;99.90
56322;DHT22;42227;6.376;-10.782;2022-11-15T17:05:51;25.60;99.90
56322;DHT22;42227;6.376;-10.782;2022-11-15T17:08:19;25.60;99.90
56322;DHT22;42227;6.376;-10.782;2022-11-15T17:10:48;25.60;99.90
56322;DHT22;42227;6.376;-10.782;2022-11-15T17:13:16;25.40;99.90
56322;DHT22;42227;6.376;-10.782;2022-11-15T17:15:44;25.40;99.90
56322;DHT22;42227;6.376;-10.782;2022-11-15T17:18:13;25.50;99.90
56322;DHT22;42227;6.376;-10.782;2022-11-15T17:20:41;25.60;99.90
56322;DHT22;42227;6.376;-10.782;2022-11-15T17:23:13;25.60;99.90
56322;DHT22;42227;6.376;-10.782;2022-11-15T17:25:42;25.90;99.90
56322;DHT22;42227;6.376;-10.782;2022-11-15T17:28:10;25.90;99.90
56322;DHT22;42227;6.376;-10.782;2022-11-15T17:30:40;25.90;99.90
56322;DHT22;42227;6.376;-10.782;2022-11-15T17:33:09;25.70;99.90
56322;DHT22;42227;6.376;-10.782;2022-11-15T17:35:37;25.70;99.90
56322;DHT22;42227;6.376;-10.782;2022-11-15T17:38:05;25.80;99.90
56322;DHT22;42227;6.376;-10.782;2022-11-15T17:40:34;25.70;99.90
56322;DHT22;42227;6.376;-10.782;2022-11-15T17:43:04;25.60;99.90
56322;DHT22;42227;6.376;-10.782;2022-11-15T17:45:33;25.50;99.90
56322;DHT22;42227;6.376;-10.782;2022-11-15T17:48:01;25.60;99.90
56322;DHT22;42227;6.376;-10.782;2022-11-15T17:50:29;25.50;99.90
56322;DHT22;42227;6.376;-10.782;2022-11-15T17:52:59;25.60;99.90
56322;DHT22;42227;6.376;-10.782;2022-11-15T17:55:27;25.50;99.90
56322;DHT22;42227;6.376;-10.782;2022-11-15T17:57:55;25.40;99.90
56322;DHT22;42227;6.376;-10.782;2022-11-15T18:00:23;25.40;99.90
56322;DHT22;42227;6.376;-10.782;2022-11-15T18:02:51;25.40;99.90
56322;DHT22;42227;6.376;-10.782;2022-11-15T18:05:20;25.30;99.90
56322;DHT22;42227;6.376;-10.782;2022-11-15T18:07:48;25.30;99.90
56322;DHT22;42227;6.376;-10.782;2022-11-15T18:10:17;25.20;99.90
56322;DHT22;42227;6.376;-10.782;2022-11-15T18:12:45;25.30;99.90
56322;DHT22;42227;6.376;-10.782;2022-11-15T18:15:13;25.40;99.90
56322;DHT22;42227;6.376;-10.782;2022-11-15T18:17:42;25.40;99.90
56322;DHT22;42227;6.376;-10.782;2022-11-15T18:20:10;25.20;99.90
56322;DHT22;42227;6.376;-10.782;2022-11-15T18:22:38;25.10;99.90
56322;DHT22;42227;6.376;-10.782;2022-11-15T18:25:07;25.00;99.90
56322;DHT22;42227;6.376;-10.782;2022-11-15T18:27:35;25.00;99.90
56322;DHT22;42227;6.376;-10.782;2022-11-15T18:30:04;24.90;99.90
56322;DHT22;42227;6.376;-10.782;2022-11-15T18:32:32;24.80;99.90
56322;DHT22;42227;6.376;-10.782;2022-11-15T18:35:01;24.80;99.90
56322;DHT22;42227;6.376;-10.782;2022-11-15T18:37:29;24.80;99.90
56322;DHT22;42227;6.376;-10.782;2022-11-15T18:39:57;24.80;99.90
56322;DHT22;42227;6.376;-10.782;2022-11-15T18:42:25;25.00;99.90
56322;DHT22;42227;6.376;-10.782;2022-11-15T18:44:53;25.00;99.90
56322;DHT22;42227;6.376;-10.782;2022-11-15T18:47:22;24.80;99.90